createdAt,value
2022-11-16T00:01:37.253Z,91.76
2022-11-16T00:04:04.840Z,91.69
2022-11-16T00:06:32.634Z,92.29
2022-11-16T00:09:19.089Z,92.63
2022-11-16T00:11:49.771Z,92.73
2022-11-16T00:14:17.376Z,93.44
2022-11-16T00:16:45.096Z,93.16
2022-11-16T00:19:12.949Z,93.52
2022-11-16T00:21:43.045Z,93.26
2022-11-16T00:24:12.856Z,93.88
2022-11-16T00:26:40.318Z,94.44
2022-11-16T00:29:14.430Z,94.31
2022-11-16T00:31:42.408Z,95.52
2022-11-16T00:34:10.024Z,95.85
2022-11-16T00:36:37.470Z,96.15
2022-11-16T00:39:05.100Z,96.30
2022-11-16T00:41:32.704Z,96.67
2022-11-16T00:44:00.133Z,96.36
2022-11-16T00:46:29.168Z,96.43
2022-11-16T00:48:56.638Z,95.70
2022-11-16T00:51:24.047Z,95.52
2022-11-16T00:53:51.716Z,95.77
2022-11-16T00:56:19.295Z,95.27
2022-11-16T00:58:46.747Z,95.59
2022-11-16T01:01:14.607Z,95.66
2022-11-16T01:03:43.471Z,96.23
2022-11-16T01:06:13.104Z,96.74
2022-11-16T01:08:41.959Z,96.98
2022-11-16T01:11:27.676Z,97.40
2022-11-16T01:13:55.663Z,97.19
2022-11-16T01:16:24.482Z,97.67
2022-11-16T01:18:55.371Z,97.90
2022-11-16T01:21:24.427Z,98.15
2022-11-16T01:23:52.564Z,97.47
2022-11-16T01:26:20.240Z,97.35
2022-11-16T01:28:47.971Z,97.73
2022-11-16T01:31:15.664Z,98.01
2022-11-16T01:33:43.176Z,98.41
2022-11-16T01:36:27.807Z,99.51
2022-11-16T01:38:57.531Z,99.55
2022-11-16T01:41:28.450Z,99.66
2022-11-16T01:44:00.719Z,99.90
2022-11-16T01:46:34.336Z,100.00
2022-11-16T01:49:05.450Z,100.00
2022-11-16T01:51:34.586Z,100.00
2022-11-16T01:54:04.471Z,100.00
2022-11-16T01:56:33.069Z,100.00
2022-11-16T01:59:12.949Z,100.00
2022-11-16T02:01:41.055Z,100.00
2022-11-16T02:04:11.082Z,100.00
2022-11-16T02:06:56.061Z,100.00
2022-11-16T02:09:55.205Z,100.00
2022-11-16T02:12:38.470Z,100.00
2022-11-16T02:15:13.225Z,100.00
2022-11-16T02:17:49.676Z,100.00
2022-11-16T02:20:41.844Z,100.00
2022-11-16T02:23:25.843Z,100.00
2022-11-16T02:25:59.995Z,100.00
2022-11-16T02:28:35.546Z,100.00
2022-11-16T02:31:07.081Z,100.00
2022-11-16T02:33:37.136Z,100.00
2022-11-16T02:36:08.711Z,100.00
2022-11-16T02:38:38.840Z,100.00
2022-11-16T02:41:10.092Z,100.00
2022-11-16T02:43:41.427Z,100.00
2022-11-16T02:46:13.509Z,100.00
2022-11-16T02:48:43.855Z,100.00
2022-11-16T02:51:12.138Z,100.00
2022-11-16T02:53:43.095Z,100.00
2022-11-16T02:56:14.180Z,100.00
2022-11-16T02:58:42.131Z,100.00
2022-11-16T03:01:14.380Z,100.00
2022-11-16T03:03:44.348Z,100.00
2022-11-16T03:06:16.243Z,100.00
2022-11-16T03:08:47.257Z,100.00
2022-11-16T03:11:32.455Z,100.00
2022-11-16T03:14:03.731Z,100.00
2022-11-16T03:16:35.943Z,100.00
2022-11-16T03:19:06.104Z,100.00
2022-11-16T03:21:39.139Z,100.00
2022-11-16T03:24:08.107Z,100.00
2022-11-16T03:26:52.335Z,100.00
2022-11-16T03:29:24.930Z,100.00
2022-11-16T03:31:58.370Z,100.00
2022-11-16T03:34:29.404Z,100.00
2022-11-16T03:36:57.368Z,100.00
2022-11-16T03:39:26.736Z,100.00
2022-11-16T03:41:54.615Z,100.00
2022-11-16T03:44:22.623Z,100.00
2022-11-16T03:46:50.058Z,100.00
2022-11-16T03:49:21.845Z,100.00
2022-11-16T03:51:50.227Z,100.00
2022-11-16T03:54:17.992Z,100.00
2022-11-16T03:56:45.413Z,100.00
2022-11-16T03:59:13.267Z,100.00
2022-11-16T04:01:44.697Z,100.00
2022-11-16T04:04:33.714Z,100.00
2022-11-16T04:07:20.738Z,100.00
2022-11-16T04:10:13.852Z,100.00
2022-11-16T04:13:02.275Z,100.00
2022-11-16T04:15:50.612Z,100.00
2022-11-16T04:18:36.523Z,100.00
2022-11-16T04:21:22.987Z,100.00
2022-11-16T04:24:09.612Z,100.00
2022-11-16T04:26:56.375Z,100.00
2022-11-16T04:29:24.604Z,100.00
2022-11-16T04:32:09.705Z,100.00
2022-11-16T04:34:54.797Z,100.00
2022-11-16T04:37:40.022Z,100.00
2022-11-16T04:40:11.005Z,100.00
2022-11-16T04:42:38.423Z,100.00
2022-11-16T04:45:24.239Z,100.00
2022-11-16T04:47:54.190Z,100.00
2022-11-16T04:50:25.883Z,100.00
2022-11-16T04:52:53.340Z,100.00
2022-11-16T04:55:22.521Z,100.00
2022-11-16T04:57:51.499Z,100.00
2022-11-16T05:00:19.711Z,100.00
2022-11-16T05:02:47.421Z,100.00
2022-11-16T05:05:15.323Z,100.00
2022-11-16T05:07:45.431Z,100.00
2022-11-16T05:10:20.009Z,100.00
2022-11-16T05:12:49.885Z,100.00
2022-11-16T05:15:19.745Z,100.00
2022-11-16T05:17:48.386Z,100.00
2022-11-16T05:20:38.279Z,100.00
2022-11-16T05:23:26.288Z,100.00
2022-11-16T05:25:53.675Z,100.00
2022-11-16T05:28:22.439Z,100.00
2022-11-16T05:30:49.960Z,100.00
2022-11-16T05:33:22.119Z,100.00
2022-11-16T05:35:50.647Z,100.00
2022-11-16T05:38:18.761Z,100.00
2022-11-16T05:40:49.309Z,100.00
2022-11-16T05:43:17.900Z,100.00
2022-11-16T05:45:56.225Z,100.00
2022-11-16T05:48:23.896Z,100.00
2022-11-16T05:50:51.336Z,100.00
2022-11-16T05:53:24.352Z,100.00
2022-11-16T05:55:52.085Z,100.00
2022-11-16T05:58:20.784Z,100.00
2022-11-16T06:00:50.960Z,100.00
2022-11-16T06:03:21.237Z,100.00
2022-11-16T06:05:53.041Z,100.00
2022-11-16T06:08:20.855Z,100.00
2022-11-16T06:10:51.336Z,100.00
2022-11-16T06:13:18.823Z,100.00
2022-11-16T06:15:53.165Z,100.00
2022-11-16T06:18:22.128Z,100.00
2022-11-16T06:20:50.692Z,100.00
2022-11-16T06:23:21.120Z,100.00
2022-11-16T06:25:53.853Z,100.00
2022-11-16T06:28:21.647Z,100.00
2022-11-16T06:30:49.647Z,100.00
2022-11-16T06:33:17.134Z,100.00
2022-11-16T06:35:46.207Z,100.00
2022-11-16T06:38:19.320Z,100.00
2022-11-16T06:40:51.842Z,100.00
2022-11-16T06:43:19.988Z,100.00
2022-11-16T06:45:50.176Z,100.00
2022-11-16T06:48:17.718Z,100.00
2022-11-16T06:50:48.088Z,100.00
2022-11-16T06:53:17.822Z,100.00
2022-11-16T06:55:46.285Z,100.00
2022-11-16T06:58:14.151Z,100.00
2022-11-16T07:00:43.023Z,100.00
2022-11-16T07:03:11.765Z,100.00
2022-11-16T07:05:41.703Z,100.00
2022-11-16T07:08:14.766Z,100.00
2022-11-16T07:10:42.224Z,100.00
2022-11-16T07:13:09.677Z,100.00
2022-11-16T07:15:39.568Z,100.00
2022-11-16T07:18:09.088Z,100.00
2022-11-16T07:20:39.191Z,100.00
2022-11-16T07:23:11.370Z,100.00
2022-11-16T07:25:46.628Z,100.00
2022-11-16T07:28:15.721Z,100.00
2022-11-16T07:30:44.595Z,100.00
2022-11-16T07:33:16.969Z,100.00
2022-11-16T07:36:03.484Z,100.00
2022-11-16T07:38:32.212Z,100.00
2022-11-16T07:41:03.163Z,100.00
2022-11-16T07:43:35.006Z,100.00
2022-11-16T07:46:45.252Z,100.00
2022-11-16T07:49:01.107Z,100.00
2022-11-16T07:51:51.957Z,100.00
2022-11-16T07:54:33.647Z,100.00
2022-11-16T07:57:02.609Z,100.00
2022-11-16T07:59:30.125Z,100.00
2022-11-16T08:01:59.531Z,100.00
2022-11-16T08:04:28.349Z,100.00
2022-11-16T08:06:56.133Z,100.00
2022-11-16T08:09:24.119Z,100.00
2022-11-16T08:11:52.234Z,100.00
2022-11-16T08:14:21.561Z,100.00
2022-11-16T08:16:50.799Z,100.00
2022-11-16T08:19:18.857Z,100.00
2022-11-16T08:21:49.643Z,100.00
2022-11-16T08:24:18.132Z,100.00
2022-11-16T08:26:46.070Z,100.00
2022-11-16T08:29:15.787Z,100.00
2022-11-16T08:31:50.995Z,100.00
2022-11-16T08:34:21.216Z,100.00
2022-11-16T08:36:52.247Z,100.00
2022-11-16T08:39:25.653Z,100.00
2022-11-16T08:41:53.217Z,100.00
2022-11-16T08:44:20.903Z,100.00
2022-11-16T08:46:53.980Z,100.00
2022-11-16T08:49:29.783Z,100.00
2022-11-16T08:51:57.991Z,100.00
2022-11-16T08:54:25.527Z,100.00
2022-11-16T08:56:53.291Z,100.00
2022-11-16T08:59:20.780Z,100.00
2022-11-16T09:01:51.591Z,100.00
2022-11-16T09:04:20.411Z,100.00
2022-11-16T09:06:47.973Z,100.00
2022-11-16T09:09:15.591Z,100.00
2022-11-16T09:11:43.048Z,100.00
2022-11-16T09:14:10.614Z,100.00
2022-11-16T09:16:38.032Z,100.00
2022-11-16T09:19:05.451Z,100.00
2022-11-16T09:21:36.346Z,100.00
2022-11-16T09:24:04.145Z,100.00
2022-11-16T09:26:31.609Z,100.00
2022-11-16T09:29:00.160Z,100.00
2022-11-16T09:31:28.640Z,100.00
2022-11-16T09:33:58.169Z,100.00
2022-11-16T09:36:26.276Z,100.00
2022-11-16T09:39:29.590Z,100.00
2022-11-16T09:41:59.325Z,100.00
2022-11-16T09:45:00.092Z,100.00
2022-11-16T09:47:42.945Z,100.00
2022-11-16T09:50:20.353Z,100.00
2022-11-16T09:52:49.336Z,100.00
2022-11-16T09:55:25.717Z,100.00
2022-11-16T09:57:56.194Z,99.81
2022-11-16T10:00:24.116Z,100.00
2022-11-16T10:02:59.151Z,99.64
2022-11-16T10:05:29.677Z,100.00
2022-11-16T10:08:01.471Z,100.00
2022-11-16T10:10:35.757Z,100.00
2022-11-16T10:13:09.419Z,100.00
2022-11-16T10:15:44.129Z,99.59
2022-11-16T10:18:21.427Z,99.48
2022-11-16T10:20:57.956Z,99.70
2022-11-16T10:23:35.937Z,98.95
2022-11-16T10:26:13.303Z,98.99
2022-11-16T10:29:15.551Z,97.59
2022-11-16T10:31:54.002Z,97.09
2022-11-16T10:34:23.908Z,96.26
2022-11-16T10:36:51.495Z,94.16
2022-11-16T10:39:20.393Z,93.69
2022-11-16T10:41:50.845Z,94.40
2022-11-16T10:44:21.493Z,93.32
2022-11-16T10:46:57.204Z,93.68
2022-11-16T10:49:29.924Z,94.62
2022-11-16T10:51:57.365Z,95.41
2022-11-16T10:54:24.815Z,95.70
2022-11-16T10:57:00.897Z,94.97
2022-11-16T10:59:39.767Z,93.58
2022-11-16T11:02:29.018Z,92.78
2022-11-16T11:05:05.211Z,93.83
2022-11-16T11:07:34.485Z,94.35
2022-11-16T11:10:02.137Z,93.96
2022-11-16T11:12:40.194Z,94.37
2022-11-16T11:15:26.138Z,92.68
2022-11-16T11:18:13.168Z,92.79
2022-11-16T11:20:45.101Z,91.85
2022-11-16T11:23:15.858Z,92.25
2022-11-16T11:25:50.791Z,90.82
2022-11-16T11:28:22.771Z,90.82
2022-11-16T11:31:00.091Z,90.36
2022-11-16T11:33:30.352Z,91.13
2022-11-16T11:36:01.796Z,90.97
2022-11-16T11:38:30.910Z,91.21
2022-11-16T11:41:00.401Z,92.21
2022-11-16T11:43:29.965Z,90.76
2022-11-16T11:46:05.217Z,89.85
2022-11-16T11:48:38.319Z,87.87
2022-11-16T11:51:13.039Z,86.72
2022-11-16T11:53:46.596Z,87.21
2022-11-16T11:56:15.178Z,84.40
2022-11-16T11:58:44.470Z,83.06
2022-11-16T12:01:41.915Z,83.44
2022-11-16T12:04:26.687Z,82.96
2022-11-16T12:07:00.752Z,82.93
2022-11-16T12:09:37.424Z,80.33
2022-11-16T12:12:16.040Z,81.60
2022-11-16T12:14:57.407Z,80.71
2022-11-16T12:17:28.860Z,80.56
2022-11-16T12:20:06.924Z,79.81
2022-11-16T12:22:46.288Z,80.32
2022-11-16T12:25:21.812Z,79.17
2022-11-16T12:27:55.063Z,81.73
2022-11-16T12:30:24.844Z,81.85
2022-11-16T12:33:00.823Z,83.70
2022-11-16T12:35:42.628Z,82.83
2022-11-16T12:38:26.056Z,82.71
2022-11-16T12:41:04.954Z,82.49
2022-11-16T12:43:37.587Z,82.42
2022-11-16T12:46:12.651Z,80.30
2022-11-16T12:49:08.621Z,79.48
2022-11-16T12:51:46.427Z,81.16
2022-11-16T12:54:32.335Z,79.19
2022-11-16T12:57:04.951Z,78.30
2022-11-16T12:59:46.369Z,77.68
2022-11-16T13:02:25.092Z,79.48
2022-11-16T13:04:57.452Z,78.40
2022-11-16T13:07:28.583Z,78.84
2022-11-16T13:09:58.425Z,79.13
2022-11-16T13:12:26.876Z,78.39
2022-11-16T13:14:55.942Z,79.43
2022-11-16T13:17:26.745Z,78.69
2022-11-16T13:20:11.691Z,78.11
2022-11-16T13:22:44.810Z,79.86
2022-11-16T13:25:19.536Z,81.80
2022-11-16T13:27:49.327Z,80.81
2022-11-16T13:30:19.456Z,81.19
2022-11-16T13:32:59.128Z,80.69
2022-11-16T13:35:26.981Z,79.71
2022-11-16T13:37:54.451Z,80.66
2022-11-16T13:40:30.333Z,78.21
2022-11-16T13:43:18.693Z,78.78
2022-11-16T13:45:54.260Z,79.29
2022-11-16T13:48:25.187Z,79.01
2022-11-16T13:50:54.552Z,77.81
2022-11-16T13:56:15.902Z,75.81
2022-11-16T13:58:46.096Z,75.16
2022-11-16T14:01:15.178Z,77.16
2022-11-16T14:03:44.655Z,77.10
2022-11-16T14:06:45.747Z,77.87
2022-11-16T14:09:44.209Z,77.04
2022-11-16T14:12:44.339Z,77.64
2022-11-16T14:15:15.775Z,79.23
2022-11-16T14:17:54.207Z,78.86
2022-11-16T14:20:43.503Z,78.23
2022-11-16T14:23:17.648Z,78.02
2022-11-16T14:25:50.539Z,77.86
2022-11-16T14:28:35.198Z,78.19
2022-11-16T14:31:13.917Z,79.79
2022-11-16T14:33:41.408Z,79.41
2022-11-16T14:36:11.150Z,79.23
2022-11-16T14:38:39.727Z,78.26
2022-11-16T14:41:10.888Z,78.81
2022-11-16T14:43:41.220Z,79.79
2022-11-16T14:46:10.514Z,79.63
2022-11-16T14:48:44.808Z,79.09
2022-11-16T14:51:15.850Z,78.98
2022-11-16T14:53:48.547Z,81.25
2022-11-16T14:56:18.792Z,80.76
2022-11-16T14:58:54.152Z,80.51
2022-11-16T15:01:24.580Z,80.89
2022-11-16T15:03:55.807Z,82.45
2022-11-16T15:06:26.033Z,82.49
2022-11-16T15:08:55.472Z,82.57
2022-11-16T15:11:25.885Z,83.05
2022-11-16T15:13:54.856Z,85.65
2022-11-16T15:16:22.325Z,84.52
2022-11-16T15:18:58.049Z,84.36
2022-11-16T15:21:27.355Z,84.13
2022-11-16T15:24:23.367Z,84.67
2022-11-16T15:26:42.252Z,85.51
2022-11-16T15:29:15.495Z,86.26
2022-11-16T15:31:43.204Z,87.44
2022-11-16T15:34:15.128Z,88.81
2022-11-16T15:36:44.055Z,89.85
2022-11-16T15:39:14.015Z,91.00
2022-11-16T15:41:41.759Z,91.03
2022-11-16T15:44:15.041Z,91.42
2022-11-16T15:46:44.039Z,92.53
2022-11-16T15:49:20.636Z,92.62
2022-11-16T15:51:49.346Z,93.62
2022-11-16T15:54:23.600Z,92.98
2022-11-16T15:56:51.168Z,92.98
2022-11-16T15:59:26.862Z,93.37
2022-11-16T16:01:54.627Z,93.37
2022-11-16T16:04:22.423Z,93.57
2022-11-16T16:06:52.658Z,93.91
2022-11-16T16:09:26.197Z,94.62
2022-11-16T16:11:54.055Z,95.24
2022-11-16T16:14:26.695Z,96.12
2022-11-16T16:16:54.875Z,96.15
2022-11-16T16:19:34.440Z,96.67
2022-11-16T16:22:04.268Z,97.34
2022-11-16T16:24:37.904Z,97.33
2022-11-16T16:27:11.783Z,97.19
2022-11-16T16:29:39.235Z,97.54
2022-11-16T16:32:06.843Z,97.68
2022-11-16T16:34:37.746Z,97.17
2022-11-16T16:37:10.135Z,98.00
2022-11-16T16:39:38.601Z,97.92
2022-11-16T16:42:07.087Z,98.05
2022-11-16T16:44:34.533Z,98.70
2022-11-16T16:47:01.949Z,99.78
2022-11-16T16:49:29.405Z,99.38
2022-11-16T16:51:56.884Z,99.91
2022-11-16T16:54:25.853Z,98.90
2022-11-16T16:56:53.334Z,98.78
2022-11-16T16:59:20.797Z,98.77
2022-11-16T17:01:48.295Z,99.20
2022-11-16T17:04:15.702Z,99.86
2022-11-16T17:06:46.426Z,100.00
2022-11-16T17:09:14.678Z,100.00
2022-11-16T17:11:43.428Z,100.00
2022-11-16T17:14:11.167Z,99.64
2022-11-16T17:16:38.801Z,98.71
2022-11-16T17:19:06.384Z,100.00
2022-11-16T17:21:34.061Z,100.00
2022-11-16T17:24:01.523Z,100.00
2022-11-16T17:26:29.424Z,100.00
2022-11-16T17:28:58.847Z,100.00
2022-11-16T17:31:27.803Z,100.00
2022-11-16T17:33:57.283Z,100.00
2022-11-16T17:36:24.830Z,100.00
2022-11-16T17:38:52.288Z,100.00
2022-11-16T17:41:21.806Z,100.00
2022-11-16T17:43:49.455Z,100.00
2022-11-16T17:46:19.900Z,100.00
2022-11-16T17:48:48.380Z,100.00
2022-11-16T17:51:17.918Z,100.00
2022-11-16T17:53:45.494Z,100.00
2022-11-16T17:56:14.156Z,100.00
2022-11-16T17:58:42.053Z,100.00
2022-11-16T18:01:09.506Z,100.00
2022-11-16T18:03:38.954Z,100.00
2022-11-16T18:06:08.700Z,100.00
2022-11-16T18:08:37.080Z,100.00
2022-11-16T18:11:06.269Z,100.00
2022-11-16T18:13:34.623Z,100.00
2022-11-16T18:16:06.590Z,100.00
2022-11-16T18:18:34.405Z,100.00
2022-11-16T18:21:03.238Z,100.00
2022-11-16T18:23:30.666Z,100.00
2022-11-16T18:25:58.108Z,100.00
2022-11-16T18:28:25.618Z,100.00
2022-11-16T18:30:53.075Z,100.00
2022-11-16T18:33:20.615Z,100.00
2022-11-16T18:35:48.032Z,100.00
2022-11-16T18:38:16.800Z,100.00
2022-11-16T18:40:44.262Z,100.00
2022-11-16T18:43:12.755Z,100.00
2022-11-16T18:45:40.194Z,100.00
2022-11-16T18:48:08.059Z,100.00
2022-11-16T18:50:35.507Z,100.00
2022-11-16T18:53:02.948Z,100.00
2022-11-16T18:55:31.749Z,100.00
2022-11-16T18:57:59.307Z,100.00
2022-11-16T19:00:26.800Z,100.00
2022-11-16T19:02:54.270Z,100.00
2022-11-16T19:05:21.802Z,100.00
2022-11-16T19:07:49.287Z,100.00
2022-11-16T19:10:16.853Z,100.00
2022-11-16T19:12:45.627Z,100.00
2022-11-16T19:15:13.075Z,100.00
2022-11-16T19:17:59.664Z,100.00
2022-11-16T19:20:28.200Z,100.00
2022-11-16T19:22:55.667Z,100.00
2022-11-16T19:25:23.633Z,100.00
2022-11-16T19:27:52.939Z,100.00
2022-11-16T19:30:20.687Z,100.00
2022-11-16T19:32:48.208Z,100.00
2022-11-16T19:35:16.173Z,100.00
2022-11-16T19:37:43.804Z,100.00
2022-11-16T19:40:12.343Z,100.00
2022-11-16T19:42:40.719Z,100.00
2022-11-16T19:45:11.071Z,100.00
2022-11-16T19:47:39.413Z,100.00
2022-11-16T19:50:10.410Z,100.00
2022-11-16T19:52:39.453Z,100.00
2022-11-16T19:55:08.589Z,100.00
2022-11-16T19:57:37.059Z,100.00
2022-11-16T20:00:06.364Z,100.00
2022-11-16T20:02:36.612Z,100.00
2022-11-16T20:05:05.393Z,100.00
2022-11-16T20:07:38.290Z,100.00
2022-11-16T20:10:07.866Z,100.00
2022-11-16T20:12:36.255Z,100.00
2022-11-16T20:15:05.575Z,100.00
2022-11-16T20:17:35.719Z,100.00
2022-11-16T20:20:04.244Z,100.00
2022-11-16T20:22:32.972Z,100.00
2022-11-16T20:25:02.218Z,100.00
2022-11-16T20:27:30.835Z,100.00
2022-11-16T20:29:59.280Z,100.00
2022-11-16T20:32:28.303Z,100.00
2022-11-16T20:34:58.183Z,100.00
2022-11-16T20:37:26.494Z,100.00
2022-11-16T20:39:57.194Z,100.00
2022-11-16T20:42:25.246Z,100.00
2022-11-16T20:44:53.124Z,100.00
2022-11-16T20:47:20.705Z,100.00
2022-11-16T20:49:48.344Z,100.00
2022-11-16T20:52:18.741Z,100.00
2022-11-16T20:54:46.265Z,100.00
2022-11-16T20:57:13.744Z,100.00
2022-11-16T20:59:41.259Z,100.00
2022-11-16T21:02:10.575Z,100.00
2022-11-16T21:04:38.028Z,100.00
2022-11-16T21:07:05.504Z,100.00
2022-11-16T21:09:54.283Z,100.00
2022-11-16T21:12:42.748Z,100.00
2022-11-16T21:15:10.815Z,100.00
2022-11-16T21:17:38.219Z,100.00
2022-11-16T21:20:26.269Z,100.00
2022-11-16T21:22:53.712Z,100.00
2022-11-16T21:25:22.519Z,100.00
2022-11-16T21:27:49.909Z,100.00
2022-11-16T21:30:17.706Z,100.00
2022-11-16T21:32:45.127Z,100.00
2022-11-16T21:35:12.659Z,100.00
2022-11-16T21:37:40.080Z,100.00
2022-11-16T21:40:08.762Z,100.00
2022-11-16T21:42:37.527Z,100.00
2022-11-16T21:45:05.491Z,100.00
2022-11-16T21:47:32.915Z,100.00
2022-11-16T21:50:30.089Z,100.00
2022-11-16T21:52:47.879Z,100.00
2022-11-16T21:55:15.302Z,100.00
2022-11-16T21:57:44.068Z,100.00
2022-11-16T22:00:12.732Z,100.00
2022-11-16T22:02:40.127Z,100.00
2022-11-16T22:05:26.859Z,100.00
2022-11-16T22:07:54.423Z,100.00
2022-11-16T22:10:22.232Z,100.00
2022-11-16T22:12:50.980Z,100.00
2022-11-16T22:15:18.395Z,100.00
2022-11-16T22:17:46.134Z,100.00
2022-11-16T22:20:13.730Z,100.00
2022-11-16T22:22:41.167Z,100.00
2022-11-16T22:25:09.185Z,100.00
2022-11-16T22:27:52.445Z,100.00
2022-11-16T22:30:25.635Z,100.00
2022-11-16T22:32:54.033Z,100.00
2022-11-16T22:35:21.447Z,100.00
2022-11-16T22:37:48.832Z,100.00
2022-11-16T22:40:17.899Z,100.00
2022-11-16T22:42:45.497Z,100.00
2022-11-16T22:45:13.004Z,100.00
2022-11-16T22:47:41.804Z,100.00
2022-11-16T22:50:09.851Z,100.00
2022-11-16T22:52:37.260Z,100.00
2022-11-16T22:55:05.273Z,100.00
2022-11-16T22:57:32.677Z,100.00
2022-11-16T23:00:00.083Z,100.00
2022-11-16T23:02:27.480Z,100.00
2022-11-16T23:04:56.196Z,100.00
2022-11-16T23:07:23.730Z,100.00
2022-11-16T23:09:51.187Z,100.00
2022-11-16T23:12:36.243Z,100.00
2022-11-16T23:15:21.226Z,100.00
2022-11-16T23:17:48.643Z,100.00
2022-11-16T23:20:34.972Z,100.00
2022-11-16T23:23:20.003Z,100.00
2022-11-16T23:26:05.689Z,100.00
2022-11-16T23:28:33.193Z,100.00
2022-11-16T23:31:00.613Z,100.00
2022-11-16T23:33:42.110Z,100.00
2022-11-16T23:36:11.088Z,100.00
2022-11-16T23:38:38.536Z,100.00
2022-11-16T23:41:20.127Z,100.00
2022-11-16T23:43:59.941Z,100.00
2022-11-16T23:46:28.254Z,100.00
2022-11-16T23:48:55.835Z,100.00
2022-11-16T23:51:24.918Z,100.00
2022-11-16T23:53:52.570Z,100.00
2022-11-16T23:56:20.753Z,100.00
2022-11-16T23:58:48.726Z,100.00
